Time;durP1;ratioP1;P1;durP2;ratioP2;P2;SDS_P1;SDS_P2;PMS_P1;PMS_P2;Temp;Humidity;BMP_temperature;BMP_pressure;BME280_temperature;BME280_humidity;BME280_pressure;Samples;Min_cycle;Max_cycle;Signal;HPM_P1;HPM_P2
2021/12/03 00:02:15;;;;;;;2.60;2.40;;;;;;;-0.83;79.60;99813.78;6143321;29;20310;-76
2021/12/03 00:05:24;;;;;;;2.83;2.20;;;;;;;-0.80;79.16;99830.38;6143631;29;20197;-75
2021/12/03 00:08:28;;;;;;;2.27;2.17;;;;;;;-1.10;80.06;99822.16;6143950;29;20274;-75
2021/12/03 00:11:34;;;;;;;2.20;2.10;;;;;;;-1.10;80.21;99816.81;6144435;29;20193;-76
2021/12/03 00:14:39;;;;;;;2.53;2.40;;;;;;;-0.89;79.18;99819.81;6144248;29;20283;-76
2021/12/03 00:17:44;;;;;;;3.50;2.17;;;;;;;-1.06;79.69;99823.50;6143175;29;20524;-76
2021/12/03 00:20:49;;;;;;;2.50;2.00;;;;;;;-0.94;79.19;99814.13;6143605;29;20193;-74
2021/12/03 00:23:54;;;;;;;2.50;2.40;;;;;;;-1.08;79.52;99815.66;6142701;29;20367;-75
2021/12/03 00:27:00;;;;;;;4.63;2.20;;;;;;;-1.01;79.04;99810.47;6142920;29;20215;-75
2021/12/03 00:30:07;;;;;;;2.17;2.07;;;;;;;-1.17;79.08;99831.88;6142747;29;20386;-75
2021/12/03 00:33:16;;;;;;;4.27;2.00;;;;;;;-1.29;79.64;99826.84;6142542;29;20218;-75
2021/12/03 00:36:22;;;;;;;2.00;1.90;;;;;;;-1.28;80.17;99825.84;6143924;29;20192;-75
2021/12/03 00:39:27;;;;;;;2.07;2.00;;;;;;;-1.21;79.44;99830.53;6143765;29;20189;-75
2021/12/03 00:42:33;;;;;;;3.07;2.40;;;;;;;-1.20;79.04;99838.38;6142712;29;20189;-74
2021/12/03 00:45:38;;;;;;;2.27;2.17;;;;;;;-1.26;79.06;99845.22;6142346;29;20419;-75
2021/12/03 00:48:43;;;;;;;2.27;2.20;;;;;;;-1.11;78.29;99847.28;6143129;29;20189;-75
2021/12/03 00:51:48;;;;;;;1.80;1.70;;;;;;;-1.30;78.56;99854.59;6142245;29;20190;-75
2021/12/03 00:54:52;;;;;;;3.40;2.00;;;;;;;-1.26;79.27;99850.59;6141541;29;20403;-75
2021/12/03 00:57:58;;;;;;;2.20;2.10;;;;;;;-1.29;78.57;99858.97;6142008;29;20381;-75
2021/12/03 01:01:03;;;;;;;2.00;1.97;;;;;;;-1.43;79.04;99859.59;6141941;29;20380;-75
2021/12/03 01:04:10;;;;;;;2.67;2.20;;;;;;;-1.27;79.20;99854.28;6141893;29;20216;-75
2021/12/03 01:07:14;;;;;;;2.10;2.10;;;;;;;-1.16;78.17;99865.66;6142473;29;20238;-75
2021/12/03 01:10:19;;;;;;;1.90;1.80;;;;;;;-1.29;78.85;99872.34;6143073;29;20236;-75
2021/12/03 01:13:25;;;;;;;2.00;1.90;;;;;;;-1.34;78.08;99874.69;6142548;29;20280;-75
2021/12/03 01:16:31;;;;;;;1.90;1.90;;;;;;;-1.37;78.55;99864.31;6141610;29;20188;-75
2021/12/03 01:19:36;;;;;;;2.00;1.90;;;;;;;-1.38;79.15;99876.00;6142563;29;20190;-75
2021/12/03 01:22:41;;;;;;;2.40;2.17;;;;;;;-1.55;79.69;99876.13;6141490;29;20532;-75
2021/12/03 01:25:45;;;;;;;2.03;1.93;;;;;;;-1.60;80.29;99879.28;6141893;29;20223;-76
2021/12/03 01:28:51;;;;;;;2.10;2.00;;;;;;;-1.53;79.57;99885.66;6142561;29;20192;-75
2021/12/03 01:31:57;;;;;;;2.40;2.30;;;;;;;-1.47;80.10;99873.47;6141144;29;20463;-75
2021/12/03 01:35:01;;;;;;;2.17;2.07;;;;;;;-1.37;79.73;99880.34;6142425;29;20265;-75
2021/12/03 01:38:07;;;;;;;1.70;1.70;;;;;;;-1.69;79.70;99885.59;6141146;29;20480;-75
2021/12/03 01:41:11;;;;;;;3.70;2.07;;;;;;;-1.66;80.22;99893.28;6142319;29;20197;-75
2021/12/03 01:44:17;;;;;;;2.60;2.33;;;;;;;-1.71;80.24;99887.59;6141983;29;20195;-75
2021/12/03 01:47:21;;;;;;;4.17;2.47;;;;;;;-1.48;79.57;99899.38;6142004;29;20244;-75
2021/12/03 01:50:28;;;;;;;6.13;2.23;;;;;;;-1.55;79.35;99903.72;6141415;29;20273;-75
2021/12/03 01:53:36;;;;;;;2.17;2.07;;;;;;;-1.51;78.77;99899.69;6141940;29;20256;-75
2021/12/03 01:56:40;;;;;;;3.47;2.53;;;;;;;-1.46;78.73;99902.72;6142070;29;20189;-75
2021/12/03 01:59:46;;;;;;;2.00;1.97;;;;;;;-1.56;79.65;99918.06;6141756;29;20212;-75
2021/12/03 02:02:51;;;;;;;2.27;2.17;;;;;;;-1.46;79.75;99924.13;6140629;29;20386;-75
2021/12/03 02:05:57;;;;;;;2.20;2.10;;;;;;;-1.54;79.30;99910.72;6141206;29;20194;-75
2021/12/03 02:09:02;;;;;;;2.43;2.30;;;;;;;-1.59;79.37;99907.69;6141756;29;20267;-76
2021/12/03 02:12:07;;;;;;;2.73;2.53;;;;;;;-1.57;79.11;99929.78;6141918;29;20199;-75
2021/12/03 02:15:14;;;;;;;2.83;2.63;;;;;;;-1.50;78.96;99925.47;6141825;29;20223;-76
2021/12/03 02:18:19;;;;;;;2.27;2.10;;;;;;;-1.44;78.92;99932.81;6140504;29;20387;-75
2021/12/03 02:21:25;;;;;;;2.90;2.27;;;;;;;-1.37;79.35;99927.66;6141199;29;20191;-75
2021/12/03 02:24:30;;;;;;;2.23;2.10;;;;;;;-1.48;79.18;99925.28;6140304;29;20504;-75
2021/12/03 02:27:34;;;;;;;2.00;1.90;;;;;;;-1.45;79.46;99933.84;6141459;29;20192;-75
2021/12/03 02:30:39;;;;;;;2.13;2.10;;;;;;;-1.35;79.09;99926.50;6141583;29;20189;-75
2021/12/03 02:33:44;;;;;;;3.57;2.10;;;;;;;-1.42;79.90;99936.19;6141269;29;20188;-75
2021/12/03 02:36:49;;;;;;;2.40;1.93;;;;;;;-1.32;79.21;99936.03;6140448;29;20473;-75
2021/12/03 02:39:53;;;;;;;3.70;2.47;;;;;;;-1.34;78.57;99933.53;6141653;29;20246;-75
2021/12/03 02:42:58;;;;;;;2.23;2.13;;;;;;;-1.40;79.51;99934.19;6140218;29;20438;-75
2021/12/03 02:46:02;;;;;;;2.33;2.20;;;;;;;-1.61;80.22;99941.78;6141474;29;20192;-75
2021/12/03 02:49:08;;;;;;;2.30;2.20;;;;;;;-1.73;80.70;99943.09;6141258;29;20196;-75
2021/12/03 02:52:14;;;;;;;2.53;2.33;;;;;;;-1.54;80.43;99948.16;6140713;29;20188;-75
2021/12/03 02:55:20;;;;;;;5.23;2.30;;;;;;;-1.55;80.14;99945.66;6139999;29;20219;-75
2021/12/03 02:58:24;;;;;;;2.27;2.07;;;;;;;-1.42;79.61;99951.41;6141070;29;20227;-75
2021/12/03 03:01:29;;;;;;;2.53;2.23;;;;;;;-1.44;79.94;99948.88;6141116;29;20192;-75
2021/12/03 03:04:33;;;;;;;2.50;2.40;;;;;;;-1.26;79.24;99941.56;6140381;29;20195;-75
2021/12/03 03:07:39;;;;;;;2.20;2.10;;;;;;;-1.43;79.32;99949.72;6140548;29;20314;-75
2021/12/03 03:10:44;;;;;;;2.53;2.43;;;;;;;-1.53;79.96;99949.00;6140988;29;20189;-75
2021/12/03 03:13:48;;;;;;;2.20;2.10;;;;;;;-1.40;79.76;99960.94;6141163;29;20192;-75
2021/12/03 03:16:54;;;;;;;2.10;2.00;;;;;;;-1.29;79.12;99949.94;6142021;29;20222;-75
2021/12/03 03:20:00;;;;;;;2.77;1.60;;;;;;;-1.08;78.38;99954.00;6144374;29;20206;-75
2021/12/03 03:23:06;;;;;;;2.17;2.07;;;;;;;-1.12;78.83;99952.66;6145476;29;20290;-75
2021/12/03 03:26:14;;;;;;;2.43;2.27;;;;;;;-1.26;78.98;99946.13;6144653;29;20373;-75
2021/12/03 03:29:18;;;;;;;2.23;2.20;;;;;;;-1.31;79.24;99941.22;6145291;29;20200;-75
2021/12/03 03:32:24;;;;;;;1.60;1.60;;;;;;;-1.33;80.01;99951.25;6145301;29;20195;-75
2021/12/03 03:35:29;;;;;;;2.23;1.93;;;;;;;-1.30;79.17;99950.94;6145372;29;20245;-75
2021/12/03 03:38:35;;;;;;;2.00;1.80;;;;;;;-1.29;78.95;99947.28;6144195;29;20191;-75
2021/12/03 03:41:41;;;;;;;2.37;2.00;;;;;;;-1.23;79.33;99944.94;6143871;29;20501;-75
2021/12/03 03:44:46;;;;;;;2.07;2.07;;;;;;;-1.13;79.15;99956.34;6144706;29;20210;-75
2021/12/03 03:47:51;;;;;;;2.30;2.20;;;;;;;-1.27;79.01;99950.63;6144970;29;20195;-75
2021/12/03 03:50:55;;;;;;;5.80;2.20;;;;;;;-1.37;79.25;99952.59;6143517;29;20404;-75
2021/12/03 03:54:01;;;;;;;2.00;1.90;;;;;;;-1.20;79.40;99950.78;6144825;29;20261;-75
2021/12/03 03:57:06;;;;;;;2.03;2.00;;;;;;;-1.11;79.08;99959.69;6143408;29;20457;-75
2021/12/03 04:00:15;;;;;;;3.47;2.40;;;;;;;-1.15;78.57;99950.28;6144674;29;20269;-75
2021/12/03 04:03:24;;;;;;;2.53;2.33;;;;;;;-1.22;79.02;99951.94;6143618;29;20190;-75
2021/12/03 04:06:28;;;;;;;2.37;2.00;;;;;;;-1.19;78.37;99957.84;6144225;29;20193;-75
2021/12/03 04:09:34;;;;;;;1.80;1.70;;;;;;;-1.34;79.33;99946.94;6143480;29;20598;-75
2021/12/03 04:12:39;;;;;;;1.93;1.93;;;;;;;-1.09;78.77;99946.97;6144098;29;20190;-75
2021/12/03 04:15:44;;;;;;;3.03;2.17;;;;;;;-1.26;79.49;99936.22;6144190;29;20247;-75
2021/12/03 04:18:48;;;;;;;2.43;2.23;;;;;;;-1.19;78.81;99946.28;6144262;29;20224;-75
2021/12/03 04:21:53;;;;;;;2.73;2.10;;;;;;;-1.13;78.40;99945.63;6143360;29;20228;-75
2021/12/03 04:24:59;;;;;;;1.83;1.83;;;;;;;-1.35;79.03;99947.91;6143966;29;20206;-75
2021/12/03 04:28:05;;;;;;;3.63;2.30;;;;;;;-1.24;78.46;99949.47;6143040;29;20192;-75
2021/12/03 04:31:09;;;;;;;4.80;2.50;;;;;;;-1.27;78.90;99945.25;6144006;29;20228;-75
2021/12/03 04:34:14;;;;;;;2.20;2.10;;;;;;;-1.09;78.24;99953.16;6143804;29;20195;-75
2021/12/03 04:37:19;;;;;;;2.20;2.10;;;;;;;-1.27;78.41;99952.44;6142391;29;20217;-75
2021/12/03 04:40:25;;;;;;;1.80;1.77;;;;;;;-1.10;77.81;99956.00;6142713;29;20222;-75
2021/12/03 04:43:31;;;;;;;2.40;2.30;;;;;;;-1.18;77.65;99953.31;6142281;29;20379;-75
2021/12/03 04:46:35;;;;;;;2.10;2.10;;;;;;;-1.48;78.05;99963.59;6143623;29;20304;-75
2021/12/03 04:49:40;;;;;;;2.57;2.40;;;;;;;-1.27;77.36;99961.31;6142944;29;20270;-75
2021/12/03 04:52:45;;;;;;;2.40;2.30;;;;;;;-1.44;77.85;99964.91;6141984;29;20274;-75
2021/12/03 04:55:51;;;;;;;2.00;1.90;;;;;;;-1.55;77.80;99965.22;6143337;29;20220;-75
2021/12/03 04:58:56;;;;;;;2.23;2.13;;;;;;;-1.53;78.11;99976.59;6141917;29;20534;-75
2021/12/03 05:02:05;;;;;;;4.00;2.33;;;;;;;-1.46;77.52;99971.44;6142320;29;20219;-75
2021/12/03 05:05:12;;;;;;;4.40;2.00;;;;;;;-1.43;77.07;99963.09;6142185;29;20385;-75
2021/12/03 05:08:17;;;;;;;1.93;1.93;;;;;;;-1.52;77.88;99969.41;6142199;29;20245;-75
2021/12/03 05:11:23;;;;;;;6.47;2.50;;;;;;;-1.61;77.44;99979.22;6141810;29;20475;-75
2021/12/03 05:14:27;;;;;;;2.00;1.90;;;;;;;-1.64;77.97;99984.06;6141802;29;20224;-75
2021/12/03 05:17:35;;;;;;;2.30;2.20;;;;;;;-1.49;78.21;99985.97;6142863;29;20222;-75
2021/12/03 05:20:39;;;;;;;2.57;2.37;;;;;;;-1.30;77.97;99988.41;6142387;29;20188;-75
2021/12/03 05:23:43;;;;;;;2.60;2.40;;;;;;;-1.22;76.85;99994.78;6141520;29;20387;-75
2021/12/03 05:26:49;;;;;;;2.47;2.37;;;;;;;-1.32;76.91;99990.41;6141317;29;20273;-75
2021/12/03 05:29:54;;;;;;;2.20;2.10;;;;;;;-1.17;77.33;99989.78;6142140;29;20196;-75
2021/12/03 05:32:58;;;;;;;2.70;2.50;;;;;;;-1.26;76.84;99995.09;6142195;29;20254;-75
2021/12/03 05:36:02;;;;;;;6.07;2.40;;;;;;;-1.55;77.90;99989.31;6141804;29;20279;-75
2021/12/03 05:39:08;;;;;;;2.17;2.10;;;;;;;-1.55;77.55;99994.66;6141788;29;20195;-75
2021/12/03 05:42:14;;;;;;;2.93;2.53;;;;;;;-1.52;77.81;99997.03;6140729;29;20502;-75
2021/12/03 05:45:21;;;;;;;4.17;2.70;;;;;;;-1.41;77.00;100001.22;6141924;29;20188;-75
2021/12/03 05:48:26;;;;;;;5.20;2.37;;;;;;;-1.55;76.96;100009.88;6142015;29;20193;-75
2021/12/03 05:51:30;;;;;;;2.63;2.43;;;;;;;-1.66;76.85;100000.28;6142042;29;20193;-75
2021/12/03 05:54:34;;;;;;;2.63;2.50;;;;;;;-1.67;77.43;100017.31;6142118;29;20247;-75
2021/12/03 05:57:42;;;;;;;3.67;2.40;;;;;;;-1.71;77.56;100018.63;6141435;29;20219;-75
2021/12/03 06:00:47;;;;;;;2.53;2.43;;;;;;;-1.69;77.45;100018.47;6141257;29;20267;-75
2021/12/03 06:03:51;;;;;;;3.03;2.73;;;;;;;-1.83;78.04;100022.59;6140871;29;20285;-75
2021/12/03 06:06:56;;;;;;;3.00;2.50;;;;;;;-1.72;76.77;100019.63;6141236;29;20194;-74
2021/12/03 06:10:01;;;;;;;2.83;2.63;;;;;;;-2.09;78.39;100032.41;6141469;29;20195;-75
2021/12/03 06:13:07;;;;;;;2.60;2.50;;;;;;;-1.70;77.45;100032.84;6141430;29;20387;-74
2021/12/03 06:16:15;;;;;;;3.07;2.43;;;;;;;-1.42;76.50;100032.50;6140415;29;20495;-75
2021/12/03 06:19:19;;;;;;;3.70;2.27;;;;;;;-1.56;76.96;100033.09;6141771;29;20254;-75
2021/12/03 06:22:24;;;;;;;2.80;2.40;;;;;;;-1.59;76.43;100036.06;6141706;29;20199;-74
2021/12/03 06:25:28;;;;;;;3.10;2.53;;;;;;;-1.71;77.41;100023.97;6140804;29;20548;-75
2021/12/03 06:28:35;;;;;;;3.23;3.03;;;;;;;-1.67;77.27;100030.69;6140368;29;20478;-76
2021/12/03 06:31:39;;;;;;;3.50;2.43;;;;;;;-1.57;75.67;100039.47;6140385;29;20191;-76
2021/12/03 06:34:44;;;;;;;2.43;2.23;;;;;;;-1.70;76.44;100044.38;6141705;29;20222;-75
2021/12/03 06:37:50;;;;;;;2.67;2.47;;;;;;;-1.70;76.27;100044.38;6141272;29;20266;-76
2021/12/03 06:40:56;;;;;;;2.17;2.17;;;;;;;-1.71;76.34;100042.69;6140260;29;20230;-76
2021/12/03 06:44:02;;;;;;;3.30;2.50;;;;;;;-1.70;76.10;100041.72;6141226;29;20188;-76
2021/12/03 06:47:07;;;;;;;3.13;2.83;;;;;;;-1.65;76.16;100039.41;6140556;29;20226;-75
2021/12/03 06:50:17;;;;;;;3.83;2.53;;;;;;;-1.70;75.03;100048.91;6141387;29;20189;-75
2021/12/03 06:53:24;;;;;;;2.83;2.57;;;;;;;-1.71;75.57;100042.69;6146097;29;20198;-74
2021/12/03 06:56:43;;;;;;;3.03;2.83;;;;;;;-1.45;75.62;100048.88;6145671;29;20255;-75
2021/12/03 06:59:49;;;;;;;3.07;2.53;;;;;;;-1.48;75.23;100043.84;6144528;29;20475;-75
2021/12/03 07:02:53;;;;;;;2.97;2.73;;;;;;;-1.42;74.76;100048.56;6145022;29;20196;-75
2021/12/03 07:05:58;;;;;;;5.50;2.77;;;;;;;-1.54;74.81;100060.50;6145686;29;20256;-75
2021/12/03 07:09:02;;;;;;;2.70;2.50;;;;;;;-1.81;75.37;100062.50;6145563;29;20305;-75
2021/12/03 07:12:10;;;;;;;2.97;2.80;;;;;;;-1.82;75.74;100067.03;6144069;29;20476;-75
2021/12/03 07:15:16;;;;;;;3.13;2.90;;;;;;;-1.69;75.34;100070.13;6145545;29;20192;-75
2021/12/03 07:18:20;;;;;;;3.50;2.70;;;;;;;-1.81;75.17;100074.06;6144209;29;20216;-76
2021/12/03 07:21:26;;;;;;;6.50;3.00;;;;;;;-1.71;74.06;100074.78;6144023;29;20497;-75
2021/12/03 07:24:30;;;;;;;4.23;2.70;;;;;;;-1.76;74.75;100073.56;6144979;29;20223;-76
2021/12/03 07:27:34;;;;;;;3.80;2.97;;;;;;;-1.75;74.59;100072.59;6143821;29;20415;-75
2021/12/03 07:30:40;;;;;;;4.93;3.23;;;;;;;-1.90;75.06;100086.50;6145006;29;20196;-76
2021/12/03 07:33:45;;;;;;;3.23;2.80;;;;;;;-2.06;75.92;100096.25;6144104;29;20255;-75
2021/12/03 07:36:49;;;;;;;5.63;3.40;;;;;;;-1.84;75.68;100097.59;6143669;29;20392;-75
2021/12/03 07:39:53;;;;;;;3.57;3.27;;;;;;;-2.12;75.46;100091.50;6144480;29;20227;-75
2021/12/03 07:42:58;;;;;;;6.27;3.23;;;;;;;-2.13;75.34;100095.19;6144756;29;20231;-75
2021/12/03 07:46:04;;;;;;;4.90;2.67;;;;;;;-2.23;75.74;100092.59;6144499;29;20198;-75
2021/12/03 07:49:09;;;;;;;4.73;3.40;;;;;;;-2.21;76.14;100097.78;6144714;29;20195;-75
2021/12/03 07:52:16;;;;;;;3.73;3.10;;;;;;;-2.04;74.96;100099.59;6144729;29;20200;-75
2021/12/03 07:55:21;;;;;;;3.27;3.03;;;;;;;-2.05;74.75;100114.78;6144631;29;20215;-74
2021/12/03 07:58:25;;;;;;;3.17;3.00;;;;;;;-2.11;74.85;100106.56;6144124;29;20286;-74
2021/12/03 08:01:32;;;;;;;2.90;2.70;;;;;;;-2.40;75.33;100108.63;6144209;29;20227;-75
2021/12/03 08:04:37;;;;;;;3.33;2.80;;;;;;;-2.35;75.80;100122.34;6142013;29;20195;-75
2021/12/03 08:07:45;;;;;;;3.20;3.03;;;;;;;-2.52;76.19;100127.53;6143657;29;20354;-75
2021/12/03 08:10:51;;;;;;;3.90;3.20;;;;;;;-2.41;75.40;100131.81;6144161;29;20229;-75
2021/12/03 08:13:55;;;;;;;3.50;2.70;;;;;;;-2.43;75.87;100130.28;6144017;29;20198;-74
2021/12/03 08:17:01;;;;;;;2.70;2.60;;;;;;;-2.41;75.52;100139.84;6142528;29;20498;-74
2021/12/03 08:20:08;;;;;;;4.27;3.27;;;;;;;-2.36;75.93;100140.22;6143929;29;20191;-74
2021/12/03 08:23:14;;;;;;;3.20;2.97;;;;;;;-2.20;74.97;100131.53;6143486;29;20192;-75
2021/12/03 08:26:18;;;;;;;5.07;3.20;;;;;;;-2.05;74.46;100138.84;6143778;29;20313;-75
2021/12/03 08:29:23;;;;;;;4.00;3.70;;;;;;;-2.14;75.42;100137.13;6142834;29;20219;-75
2021/12/03 08:32:28;;;;;;;3.30;2.60;;;;;;;-2.13;75.47;100140.63;6142460;29;20513;-75
2021/12/03 08:35:34;;;;;;;5.33;3.13;;;;;;;-2.01;74.63;100155.44;6143445;29;20199;-75
2021/12/03 08:38:38;;;;;;;3.67;2.70;;;;;;;-2.26;74.82;100153.53;6143211;29;20279;-75
2021/12/03 08:41:44;;;;;;;4.97;3.00;;;;;;;-2.29;75.16;100159.16;6142956;29;20196;-75
2021/12/03 08:44:49;;;;;;;5.13;2.63;;;;;;;-2.36;74.25;100158.09;6143255;29;20235;-75
2021/12/03 08:47:58;;;;;;;2.83;2.63;;;;;;;-2.79;76.07;100162.28;6143101;29;20195;-75
2021/12/03 08:51:11;;;;;;;2.60;2.50;;;;;;;-2.67;75.30;100171.75;6143224;29;20263;-75
2021/12/03 08:57:38;;;;;;;2.73;2.53;;;;;;;-2.31;75.25;100166.50;6143234;29;20317;-76
2021/12/03 09:00:44;;;;;;;8.00;3.33;;;;;;;-2.35;75.07;100171.28;6141926;29;20191;-75
2021/12/03 09:03:49;;;;;;;5.13;2.90;;;;;;;-2.49;74.96;100173.66;6142693;29;20191;-75
2021/12/03 09:06:54;;;;;;;4.03;3.23;;;;;;;-2.49;75.00;100174.47;6141827;29;20192;-75
2021/12/03 09:10:00;;;;;;;2.70;2.50;;;;;;;-2.34;75.29;100166.81;6142824;29;20195;-75
2021/12/03 09:13:05;;;;;;;3.77;3.03;;;;;;;-2.77;75.58;100178.97;6141898;29;20190;-74
2021/12/03 09:16:15;;;;;;;7.53;3.23;;;;;;;-2.62;75.13;100176.69;6141105;29;20213;-76
2021/12/03 09:19:25;;;;;;;3.37;2.80;;;;;;;-2.71;75.39;100175.72;6142642;29;20227;-75
2021/12/03 09:22:36;;;;;;;5.57;2.93;;;;;;;-2.36;75.82;100179.47;6142838;29;20197;-74
2021/12/03 09:25:47;;;;;;;3.20;2.90;;;;;;;-2.19;74.47;100184.84;6141995;29;20213;-75
2021/12/03 09:29:01;;;;;;;3.30;2.80;;;;;;;-2.05;73.40;100178.09;6142331;29;20230;-76
2021/12/03 09:32:07;;;;;;;2.53;2.33;;;;;;;-2.19;73.61;100190.19;6142408;29;20191;-77
2021/12/03 09:35:14;;;;;;;2.90;2.70;;;;;;;-1.93;73.54;100172.38;6142033;29;20190;-75
2021/12/03 09:38:18;;;;;;;5.47;2.77;;;;;;;-1.96;73.07;100179.88;6142302;29;20214;-74
2021/12/03 09:41:23;;;;;;;2.60;2.50;;;;;;;-2.33;74.17;100189.84;6141864;29;20219;-74
2021/12/03 09:44:31;;;;;;;4.00;2.87;;;;;;;-2.06;73.87;100176.44;6142070;29;20191;-74
2021/12/03 09:47:35;;;;;;;2.87;2.77;;;;;;;-1.96;74.22;100177.19;6142316;29;20253;-74
2021/12/03 09:50:41;;;;;;;3.00;2.70;;;;;;;-1.99;73.45;100182.84;6140918;29;20486;-75
2021/12/03 09:57:07;;;;;;;3.87;3.43;;;;;;;-2.39;73.77;100185.13;6133178;29;20215;-74
2021/12/03 10:00:23;;;;;;;3.83;2.37;;;;;;;-2.41;73.95;100176.41;6141807;29;20249;-76
2021/12/03 10:03:49;;;;;;;2.83;2.60;;;;;;;-2.46;74.66;100184.84;6142109;29;20195;-76
2021/12/03 10:14:25;;;;;;;2.77;2.63;;;;;;;-2.11;72.21;100168.03;6140574;29;20427;-76
2021/12/03 10:17:44;;;;;;;3.20;2.90;;;;;;;-1.98;72.97;100171.19;6141711;29;20223;-75
2021/12/03 10:20:57;;;;;;;4.57;2.60;;;;;;;-2.14;73.32;100168.34;6140486;29;20541;-75
2021/12/03 10:28:02;;;;;;;3.00;2.80;;;;;;;-1.82;73.62;100171.28;6359215;27;20825;-77
2021/12/03 10:38:17;;;;;;;2.50;2.40;;;;;;;-1.53;73.15;100185.25;6358089;28;20350;-76
2021/12/03 10:41:28;;;;;;;3.47;3.17;;;;;;;-1.33;73.71;100165.34;6357688;28;20576;-76
2021/12/03 10:44:52;;;;;;;3.27;2.83;;;;;;;-1.37;72.79;100174.69;6358851;28;20221;-74
2021/12/03 10:48:13;;;;;;;2.90;2.70;;;;;;;-1.39;72.16;100170.50;6358648;28;20207;-74
2021/12/03 10:51:34;;;;;;;5.80;2.97;;;;;;;-1.44;72.92;100168.25;6357472;28;20190;-75
2021/12/03 11:19:20;;;;;;;3.67;3.30;;;;;;;-1.17;73.10;100174.47;6305687;28;20471;-76
2021/12/03 11:29:40;;;;;;;5.60;3.17;;;;;;;-1.17;72.83;100163.75;6357145;27;20202;-74
2021/12/03 13:13:56;;;;;;;3.37;3.07;;;;;;;-1.90;74.69;100196.13;6337103;28;20193;-74
2021/12/03 13:24:23;;;;;;;5.47;3.23;;;;;;;-1.93;75.56;100214.31;6338315;28;20183;-75
2021/12/03 14:01:53;;;;;;;3.50;3.20;;;;;;;-1.74;75.93;100227.53;6336792;28;20222;-76
2021/12/03 14:09:06;;;;;;;5.17;3.47;;;;;;;-1.55;74.88;100223.84;6337032;28;20211;-75
2021/12/03 14:43:23;;;;;;;3.23;3.03;;;;;;;-1.34;75.16;100249.31;6336757;28;20186;-76
2021/12/03 14:57:14;;;;;;;2.93;2.83;;;;;;;-1.70;76.99;100262.84;6265896;28;20313;-75
2021/12/03 15:00:25;;;;;;;3.03;2.83;;;;;;;-1.67;77.14;100258.00;6336678;28;20186;-75
2021/12/03 15:04:10;;;;;;;3.30;3.17;;;;;;;-1.57;77.25;100261.47;6336208;28;20196;-75
2021/12/03 15:07:17;;;;;;;2.90;2.80;;;;;;;-1.44;76.46;100269.94;6336117;28;20214;-75
2021/12/03 15:10:29;;;;;;;3.73;2.50;;;;;;;-1.49;76.40;100261.53;6336323;28;20264;-75
2021/12/03 15:27:13;;;;;;;3.37;3.17;;;;;;;-1.47;76.07;100286.31;6333664;28;20273;-76
2021/12/03 15:30:27;;;;;;;3.77;3.47;;;;;;;-1.48;76.13;100284.63;6339588;28;20370;-76
2021/12/03 15:57:25;;;;;;;4.73;3.10;;;;;;;-1.38;77.37;100280.03;6338756;28;20254;-75
2021/12/03 16:04:00;;;;;;;3.00;2.77;;;;;;;-1.52;77.81;100296.63;6338389;28;20206;-75
2021/12/03 16:10:30;;;;;;;3.90;3.70;;;;;;;-1.74;78.95;100294.38;6335375;27;20247;-75
2021/12/03 16:13:46;;;;;;;4.80;3.50;;;;;;;-1.55;78.79;100288.91;6268281;28;20250;-74
2021/12/03 16:48:33;;;;;;;4.63;3.37;;;;;;;-1.87;78.25;100287.75;6312514;28;20294;-75
2021/12/03 16:51:41;;;;;;;6.20;4.10;;;;;;;-1.93;77.80;100294.53;6312893;28;20233;-75
2021/12/03 16:54:50;;;;;;;5.70;4.03;;;;;;;-1.82;77.29;100286.28;6313558;28;20194;-77
2021/12/03 16:57:55;;;;;;;3.87;3.57;;;;;;;-1.96;78.29;100292.16;6313552;28;20194;-76
2021/12/03 17:01:05;;;;;;;4.17;3.70;;;;;;;-2.19;78.19;100293.56;6313786;28;20225;-75
2021/12/03 17:04:35;;;;;;;3.80;3.43;;;;;;;-1.97;77.85;100298.47;6313321;28;20193;-75
2021/12/03 17:14:45;;;;;;;4.30;3.50;;;;;;;-2.01;76.78;100302.47;6312220;28;20506;-75
2021/12/03 17:25:15;;;;;;;3.53;3.33;;;;;;;-1.98;76.25;100302.16;6236171;28;20385;-77
2021/12/03 17:48:57;;;;;;;4.57;3.50;;;;;;;-2.02;75.05;100327.50;6317316;28;20224;-76
2021/12/03 17:55:33;;;;;;;8.13;4.20;;;;;;;-2.07;75.69;100327.09;6311243;28;20266;-76
2021/12/03 17:58:39;;;;;;;5.13;4.03;;;;;;;-2.08;75.48;100344.16;6337532;28;20190;-76
2021/12/03 18:01:54;;;;;;;4.00;3.70;;;;;;;-2.17;75.81;100337.00;6337196;28;20191;-77
2021/12/03 18:05:15;;;;;;;6.00;3.33;;;;;;;-2.21;75.20;100343.63;6336468;28;20217;-77
2021/12/03 18:08:23;;;;;;;4.23;3.83;;;;;;;-2.54;77.35;100343.19;6337113;28;20532;-76
2021/12/03 18:11:53;;;;;;;4.30;4.00;;;;;;;-2.64;77.45;100345.03;6336803;28;20534;-76
2021/12/03 18:49:10;;;;;;;4.50;4.10;;;;;;;-2.57;76.89;100359.50;6331815;28;20420;-78
2021/12/03 18:52:38;;;;;;;4.63;4.17;;;;;;;-2.24;75.99;100359.97;6343036;28;20185;-77
2021/12/03 18:55:45;;;;;;;5.07;4.10;;;;;;;-2.31;74.75;100365.03;6342624;28;20186;-77
2021/12/03 18:58:55;;;;;;;8.13;4.10;;;;;;;-2.23;74.82;100373.16;6342450;28;20190;-77
2021/12/03 19:02:05;;;;;;;6.20;4.40;;;;;;;-2.15;74.59;100369.75;6341293;28;20545;-77
2021/12/03 19:05:15;;;;;;;4.30;4.00;;;;;;;-2.17;74.72;100366.41;6342587;28;20243;-77
2021/12/03 19:08:30;;;;;;;6.87;4.50;;;;;;;-2.07;74.18;100372.53;6341739;28;20193;-77
2021/12/03 19:11:37;;;;;;;6.80;4.03;;;;;;;-2.21;73.85;100359.69;6341845;28;20305;-77
2021/12/03 19:14:49;;;;;;;4.67;4.00;;;;;;;-2.30;74.78;100363.22;6340433;28;20208;-76
2021/12/03 19:17:54;;;;;;;5.90;4.17;;;;;;;-2.20;74.79;100367.53;6338554;28;20242;-76
2021/12/03 19:21:23;;;;;;;5.07;4.40;;;;;;;-2.03;74.51;100373.94;6340378;28;20490;-76
2021/12/03 19:24:28;;;;;;;5.10;4.23;;;;;;;-2.06;75.19;100374.25;6341092;28;20186;-77
2021/12/03 19:27:33;;;;;;;5.30;4.60;;;;;;;-1.96;74.57;100375.03;6340232;28;20244;-76
2021/12/03 19:30:39;;;;;;;4.73;4.00;;;;;;;-2.12;75.48;100381.00;6341757;28;20272;-77
2021/12/03 19:33:43;;;;;;;4.70;4.30;;;;;;;-2.07;75.23;100383.22;6340159;28;20536;-77
2021/12/03 19:36:48;;;;;;;6.37;4.30;;;;;;;-2.07;75.18;100373.38;6340335;28;20246;-75
2021/12/03 19:39:52;;;;;;;4.63;4.33;;;;;;;-2.00;75.27;100373.63;6340800;28;20221;-77
2021/12/03 19:43:00;;;;;;;6.37;4.60;;;;;;;-2.06;75.04;100374.25;6340933;28;20193;-76
2021/12/03 19:46:06;;;;;;;6.00;4.87;;;;;;;-2.08;74.96;100369.03;6341029;28;20257;-76
2021/12/03 19:49:15;;;;;;;6.37;4.70;;;;;;;-2.27;75.06;100381.63;6339627;28;20213;-76
2021/12/03 19:52:26;;;;;;;8.10;4.97;;;;;;;-2.04;75.29;100377.59;6340403;28;20193;-76
2021/12/03 19:55:30;;;;;;;12.00;5.33;;;;;;;-1.93;74.05;100375.56;6341009;28;20303;-76
2021/12/03 19:58:35;;;;;;;8.33;4.90;;;;;;;-1.65;73.91;100373.75;6338802;28;20186;-76
2021/12/03 20:01:40;;;;;;;6.53;5.20;;;;;;;-1.63;73.24;100382.44;6340309;28;20197;-76
2021/12/03 20:04:45;;;;;;;6.13;4.80;;;;;;;-1.60;73.92;100379.47;6339432;28;20381;-77
2021/12/03 20:07:51;;;;;;;8.67;4.90;;;;;;;-1.98;75.02;100385.03;6340068;28;20186;-76
2021/12/03 20:10:59;;;;;;;9.23;5.30;;;;;;;-1.93;75.79;100380.09;6321433;28;20437;-76
2021/12/03 20:14:03;;;;;;;8.00;5.60;;;;;;;-1.76;75.08;100395.31;6340491;28;20224;-77
2021/12/03 20:17:16;;;;;;;5.17;4.53;;;;;;;-1.80;75.56;100390.44;6339340;28;20216;-76
2021/12/03 20:20:20;;;;;;;5.90;5.13;;;;;;;-1.71;74.93;100395.72;6338709;28;20497;-76
2021/12/03 20:23:33;;;;;;;7.60;4.93;;;;;;;-1.77;74.72;100385.59;6338922;28;20478;-77
2021/12/03 20:26:48;;;;;;;6.67;4.70;;;;;;;-1.76;74.79;100392.66;6338768;28;20237;-75
2021/12/03 20:29:54;;;;;;;5.73;4.40;;;;;;;-1.98;75.31;100387.72;6338500;28;20375;-76
2021/12/03 20:33:09;;;;;;;8.70;4.93;;;;;;;-2.08;75.97;100384.25;6339619;28;20221;-76
2021/12/03 20:36:35;;;;;;;5.90;4.87;;;;;;;-2.46;77.43;100387.00;6339888;28;20183;-76
2021/12/03 20:39:42;;;;;;;6.43;4.53;;;;;;;-2.28;77.75;100385.28;6339450;28;20189;-76
2021/12/03 20:43:00;;;;;;;5.10;4.57;;;;;;;-2.04;76.73;100385.63;6339742;28;20192;-77
2021/12/03 20:46:16;;;;;;;12.03;5.10;;;;;;;-2.03;76.50;100395.34;6338331;28;20474;-77
2021/12/03 20:49:38;;;;;;;9.30;4.73;;;;;;;-1.98;76.10;100377.84;6338919;28;20313;-74
2021/12/03 20:52:52;;;;;;;7.77;4.80;;;;;;;-1.85;75.98;100388.22;6337898;28;20494;-75
2021/12/03 20:59:40;;;;;;;8.20;5.40;;;;;;;-1.96;76.53;100396.41;6337736;28;20473;-74
2021/12/03 21:09:36;;;;;;;8.77;5.67;;;;;;;-1.80;76.39;100401.13;6337683;28;20183;-75
2021/12/03 21:12:43;;;;;;;9.77;5.83;;;;;;;-1.81;76.46;100391.41;6338215;28;20394;-74
2021/12/03 21:19:32;;;;;;;7.60;5.40;;;;;;;-1.53;75.70;100404.63;6332396;28;20210;-75
2021/12/03 21:22:41;;;;;;;7.30;5.37;;;;;;;-1.82;76.26;100414.63;6337214;28;20425;-75
2021/12/03 21:25:50;;;;;;;9.77;5.83;;;;;;;-1.71;76.03;100411.78;6337976;28;20237;-73